Western Trident — 3FE09 — position and weather

sailwx.info

Track history (hours):
 
Tides and Currents Weather Stations Pressure Air Temp Water Temp Dewpoint Dewpoint Depression Visibility Wind Speed Wind Dir Waves Ship Positions

Western Trident

Last reported at 2015-Dec-29 02:23 UTC. Time now 2016-Oct-01 17:16 UTC.
Position S 27°18' E 033°39'.
Warning: this ship's position is months out of date.

Length 95 m; draft 8.2 m.

Type: Other ship. MMSI: 357269000.

Date/timePositionNaut miles runAvg speedWind from/ knotsBaromVisibWave heightAir tempDewpointWater temp
2015-Dec-29 02:23S 27°18' E 033°39'  
2015-Dec-26 10:30S 29°07' E 032°53'10 2.5
2015-Dec-26 06:23S 29°13' E 032°44'45 3.2
2015-Dec-25 16:15S 29°46' E 032°08'6 8.1
2015-Dec-25 15:33S 29°48' E 032°02'8 7.7
2015-Dec-25 14:33S 29°49' E 031°53'8 7.7
2015-Dec-25 13:34S 29°50' E 031°44'6 5.9
2015-Dec-25 12:34S 29°50' E 031°38'8 7.9
2015-Dec-25 11:34S 29°50' E 031°29'1010.3
2015-Dec-25 10:34S 29°51' E 031°17'1010.4
2015-Dec-25 09:34S 29°51' E 031°05'4 4.4
2015-Dec-25 08:33S 29°53' E 031°00'0 0.0
2015-Dec-25 07:31S 29°53' E 031°00'0 0.0
2015-Dec-25 06:31S 29°53' E 031°00'0 0.0
2015-Dec-25 05:31S 29°53' E 031°00'0 0.0
2015-Dec-25 04:31S 29°53' E 031°00'0 0.0
2015-Dec-25 03:31S 29°53' E 031°00'0 0.0
2015-Dec-25 02:28S 29°53' E 031°00'0 0.0
2015-Dec-25 01:31S 29°53' E 031°00'0 0.0
2015-Dec-25 00:31S 29°53' E 031°00'0 0.0
2015-Dec-24 23:31S 29°53' E 031°00'0 0.0
2015-Dec-24 22:28S 29°53' E 031°00'0 0.0
2015-Dec-24 21:31S 29°53' E 031°00'0 0.0
2015-Dec-24 20:31S 29°53' E 031°00'0 0.0
2015-Dec-24 19:31S 29°53' E 031°00'0 0.0
2015-Dec-24 18:31S 29°53' E 031°00'0 0.0
2015-Dec-24 17:31S 29°53' E 031°00'0 0.0
2015-Dec-24 16:31S 29°53' E 031°00'0 0.0
2015-Dec-24 15:31S 29°53' E 031°00'0 0.0
2015-Dec-24 14:31S 29°53' E 031°00'0 0.0
2015-Dec-24 13:31S 29°53' E 031°00'0 0.0
2015-Dec-24 12:31S 29°53' E 031°00'0 0.0
2015-Dec-24 11:31S 29°53' E 031°00'0 0.0
2015-Dec-24 10:31S 29°53' E 031°00'0 0.0
2015-Dec-24 09:28S 29°53' E 031°00'0 0.0
2015-Dec-24 08:31S 29°53' E 031°00'0 0.0
2015-Dec-24 07:31S 29°53' E 031°00'0 0.0
2015-Dec-24 06:31S 29°53' E 031°00'0 0.0
2015-Dec-24 05:31S 29°53' E 031°00'0 0.0
2015-Dec-24 04:28S 29°53' E 031°00'0 0.0
2015-Dec-24 03:31S 29°53' E 031°00'0 0.0
2015-Dec-24 02:31S 29°53' E 031°00'0 0.0
2015-Dec-24 01:28S 29°53' E 031°00'0 0.0
2015-Dec-24 00:28S 29°53' E 031°00'0 0.0
2015-Dec-23 23:31S 29°53' E 031°00'0 0.0
2015-Dec-23 22:31S 29°53' E 031°00'0 0.0
2015-Dec-23 21:31S 29°53' E 031°00'0 0.0
2015-Dec-23 20:31S 29°53' E 031°00'0 0.0
2015-Dec-23 19:31S 29°53' E 031°00'0 0.0
2015-Dec-23 18:31S 29°53' E 031°00'0 0.0
2015-Dec-23 17:31S 29°53' E 031°00'0 0.0
2015-Dec-23 16:31S 29°53' E 031°00'0 0.0
2015-Dec-23 15:31S 29°53' E 031°00'0 0.0
2015-Dec-23 14:28S 29°53' E 031°00'0 0.0
2015-Dec-23 13:31S 29°53' E 031°00'0 0.0
2015-Dec-23 06:31S 29°53' E 031°00'0 0.0
2015-Dec-23 05:31S 29°53' E 031°00'0 0.0
2015-Dec-23 04:31S 29°53' E 031°00'0 0.0
2015-Dec-23 03:31S 29°53' E 031°00'0 0.0
2015-Dec-23 02:31S 29°53' E 031°00'0 0.0
2015-Dec-23 01:31S 29°53' E 031°00'0 0.0
2015-Dec-23 00:31S 29°53' E 031°00'0 0.0
2015-Dec-22 23:31S 29°53' E 031°00'0 0.0
2015-Dec-22 22:31S 29°53' E 031°00'0 0.0
2015-Dec-22 21:31S 29°53' E 031°00'0 0.0
2015-Dec-22 20:31S 29°53' E 031°00'0 0.0
2015-Dec-22 19:28S 29°53' E 031°00'0 0.0
2015-Dec-22 18:31S 29°53' E 031°00'0 0.0
2015-Dec-22 17:31S 29°53' E 031°00'0 0.0
2015-Dec-22 16:31S 29°53' E 031°00'0 0.0
2015-Dec-22 15:31S 29°53' E 031°00'0 0.0
2015-Dec-22 14:31S 29°53' E 031°00'0 0.0
2015-Dec-22 13:31S 29°53' E 031°00'0 0.0
2015-Dec-22 12:31S 29°53' E 031°00'0 0.0
2015-Dec-22 11:28S 29°53' E 031°00'0 0.0
2015-Dec-22 10:28S 29°53' E 031°00'0 0.0
2015-Dec-22 09:31S 29°53' E 031°00'0 0.0
2015-Dec-22 08:31S 29°53' E 031°00'0 0.0
2015-Dec-22 07:28S 29°53' E 031°00'0 0.0
2015-Dec-22 06:28S 29°53' E 031°00'0 0.0
2015-Dec-22 05:31S 29°53' E 031°00'0 0.0
2015-Dec-22 04:31S 29°53' E 031°00'0 0.0
2015-Dec-22 03:31S 29°53' E 031°00'0 0.0
2015-Dec-22 02:31S 29°53' E 031°00'0 0.0
2015-Dec-22 01:28S 29°53' E 031°00'0 0.0
2015-Dec-22 00:31S 29°53' E 031°00'0 0.0
2015-Dec-21 23:31S 29°53' E 031°00'0 0.0
2015-Dec-21 22:31S 29°53' E 031°00'0 0.0
2015-Dec-21 21:31S 29°53' E 031°00'0 0.0
2015-Dec-21 20:31S 29°53' E 031°00'0 0.0
2015-Dec-21 19:31S 29°53' E 031°00'0 0.0
2015-Dec-21 18:31S 29°53' E 031°00'0 0.0
2015-Dec-21 17:31S 29°53' E 031°00'0 0.0
2015-Dec-21 16:31S 29°53' E 031°00'0 0.0
2015-Dec-21 15:28S 29°53' E 031°00'0 0.0
2015-Dec-21 14:31S 29°53' E 031°00'0 0.0
2015-Dec-21 13:28S 29°53' E 031°00'0 0.0
2015-Dec-21 12:28S 29°53' E 031°00'0 0.0
2015-Dec-21 11:28S 29°53' E 031°00'0 0.0
2015-Dec-21 10:28S 29°53' E 031°00'0 0.0
2015-Dec-21 09:31S 29°53' E 031°00'0 0.0
2015-Dec-21 08:31S 29°53' E 031°00'0 0.0
2015-Dec-21 07:31S 29°53' E 031°00'0 0.0
2015-Dec-21 06:31S 29°53' E 031°00'0 0.0
2015-Dec-21 05:31S 29°53' E 031°00'0 0.0
2015-Dec-21 04:28S 29°53' E 031°00'0 0.0
2015-Dec-21 03:31S 29°53' E 031°00'0 0.0
2015-Dec-21 02:31S 29°53' E 031°00'0 0.0
2015-Dec-21 01:31S 29°53' E 031°00'0 0.0
2015-Dec-21 00:31S 29°53' E 031°00'0 0.0
2015-Dec-20 23:31S 29°53' E 031°00'0 0.0
2015-Dec-20 22:31S 29°53' E 031°00'0 0.0
2015-Dec-20 21:31S 29°53' E 031°00'0 0.0
2015-Dec-20 20:31S 29°53' E 031°00'0 0.0
2015-Dec-20 19:31S 29°53' E 031°00'0 0.0
2015-Dec-20 18:31S 29°53' E 031°00'0 0.0
2015-Dec-20 17:31S 29°53' E 031°00'0 0.0
2015-Dec-20 16:31S 29°53' E 031°00'0 0.0
2015-Dec-20 15:31S 29°53' E 031°00'0 0.0
2015-Dec-20 14:28S 29°53' E 031°00'0 0.0
2015-Dec-20 13:31S 29°53' E 031°00'0 0.0
2015-Dec-20 12:31S 29°53' E 031°00'0 0.0
2015-Dec-20 11:31S 29°53' E 031°00'0 0.0
2015-Dec-20 10:31S 29°53' E 031°00'0 0.0
2015-Dec-20 09:31S 29°53' E 031°00'0 0.0
2015-Dec-20 08:31S 29°53' E 031°00'0 0.0
2015-Dec-20 07:31S 29°53' E 031°00'0 0.0
2015-Dec-20 06:31S 29°53' E 031°00'0 0.0
2015-Dec-20 05:28S 29°53' E 031°00'0 0.0
2015-Dec-20 04:31S 29°53' E 031°00'0 0.0
2015-Dec-20 03:31S 29°53' E 031°00'0 0.0
2015-Dec-20 02:31S 29°53' E 031°00'0 0.0
2015-Dec-20 01:31S 29°53' E 031°00'0 0.0
2015-Dec-20 00:31S 29°53' E 031°00'0 0.0
2015-Dec-19 23:31S 29°53' E 031°00'0 0.0
2015-Dec-19 22:31S 29°53' E 031°00'0 0.0
2015-Dec-19 21:31S 29°53' E 031°00'0 0.0
2015-Dec-19 20:31S 29°53' E 031°00'0 0.0
2015-Dec-19 19:31S 29°53' E 031°00'0 0.0
2015-Dec-19 18:31S 29°53' E 031°00'0 0.0
2015-Dec-19 17:31S 29°53' E 031°00'0 0.0
2015-Dec-19 16:28S 29°53' E 031°00'0 0.0
2015-Dec-19 15:28S 29°53' E 031°00'0 0.0
2015-Dec-19 14:31S 29°53' E 031°00'0 0.0
2015-Dec-19 13:22S 29°53' E 031°00'0 0.0
2015-Dec-19 12:31S 29°53' E 031°00'0 0.0
2015-Dec-19 11:31S 29°53' E 031°00'0 0.0
2015-Dec-19 10:31S 29°53' E 031°00'0 0.0
2015-Dec-19 09:31S 29°53' E 031°00'0 0.0
2015-Dec-19 08:31S 29°53' E 031°00'0 0.0
2015-Dec-19 07:31S 29°53' E 031°00'0 0.0
2015-Dec-19 06:31S 29°53' E 031°00'  
Track history (hours):
 
Tides and Currents Weather Stations Pressure Air Temp Water Temp Dewpoint Dewpoint Depression Visibility Wind Speed Wind Dir Waves Ship Positions

Western Trident

Last reported at 2015-Dec-29 02:23 UTC. Time now 2016-Oct-01 17:16 UTC.
Position S 27°18' E 033°39'.
Warning: this ship's position is months out of date.

Length 95 m; draft 8.2 m.

Type: Other ship. MMSI: 357269000.

Date/timePositionNaut miles runAvg speedWind from/ knotsBaromVisibWave heightAir tempDewpointWater temp
2015-Dec-29 02:23S 27°18' E 033°39'  
2015-Dec-26 10:30S 29°07' E 032°53'10 2.5
2015-Dec-26 06:23S 29°13' E 032°44'45 3.2
2015-Dec-25 16:15S 29°46' E 032°08'6 8.1
2015-Dec-25 15:33S 29°48' E 032°02'8 7.7
2015-Dec-25 14:33S 29°49' E 031°53'8 7.7
2015-Dec-25 13:34S 29°50' E 031°44'6 5.9
2015-Dec-25 12:34S 29°50' E 031°38'8 7.9
2015-Dec-25 11:34S 29°50' E 031°29'1010.3
2015-Dec-25 10:34S 29°51' E 031°17'1010.4
2015-Dec-25 09:34S 29°51' E 031°05'4 4.4
2015-Dec-25 08:33S 29°53' E 031°00'0 0.0
2015-Dec-25 07:31S 29°53' E 031°00'0 0.0
2015-Dec-25 06:31S 29°53' E 031°00'0 0.0
2015-Dec-25 05:31S 29°53' E 031°00'0 0.0
2015-Dec-25 04:31S 29°53' E 031°00'0 0.0
2015-Dec-25 03:31S 29°53' E 031°00'0 0.0
2015-Dec-25 02:28S 29°53' E 031°00'0 0.0
2015-Dec-25 01:31S 29°53' E 031°00'0 0.0
2015-Dec-25 00:31S 29°53' E 031°00'0 0.0
2015-Dec-24 23:31S 29°53' E 031°00'0 0.0
2015-Dec-24 22:28S 29°53' E 031°00'0 0.0
2015-Dec-24 21:31S 29°53' E 031°00'0 0.0
2015-Dec-24 20:31S 29°53' E 031°00'0 0.0
2015-Dec-24 19:31S 29°53' E 031°00'0 0.0
2015-Dec-24 18:31S 29°53' E 031°00'0 0.0
2015-Dec-24 17:31S 29°53' E 031°00'0 0.0
2015-Dec-24 16:31S 29°53' E 031°00'0 0.0
2015-Dec-24 15:31S 29°53' E 031°00'0 0.0
2015-Dec-24 14:31S 29°53' E 031°00'0 0.0
2015-Dec-24 13:31S 29°53' E 031°00'0 0.0
2015-Dec-24 12:31S 29°53' E 031°00'0 0.0
2015-Dec-24 11:31S 29°53' E 031°00'0 0.0
2015-Dec-24 10:31S 29°53' E 031°00'0 0.0
2015-Dec-24 09:28S 29°53' E 031°00'0 0.0
2015-Dec-24 08:31S 29°53' E 031°00'0 0.0
2015-Dec-24 07:31S 29°53' E 031°00'0 0.0
2015-Dec-24 06:31S 29°53' E 031°00'0 0.0
2015-Dec-24 05:31S 29°53' E 031°00'0 0.0
2015-Dec-24 04:28S 29°53' E 031°00'0 0.0
2015-Dec-24 03:31S 29°53' E 031°00'0 0.0
2015-Dec-24 02:31S 29°53' E 031°00'0 0.0
2015-Dec-24 01:28S 29°53' E 031°00'0 0.0
2015-Dec-24 00:28S 29°53' E 031°00'0 0.0
2015-Dec-23 23:31S 29°53' E 031°00'0 0.0
2015-Dec-23 22:31S 29°53' E 031°00'0 0.0
2015-Dec-23 21:31S 29°53' E 031°00'0 0.0
2015-Dec-23 20:31S 29°53' E 031°00'0 0.0
2015-Dec-23 19:31S 29°53' E 031°00'0 0.0
2015-Dec-23 18:31S 29°53' E 031°00'0 0.0
2015-Dec-23 17:31S 29°53' E 031°00'0 0.0
2015-Dec-23 16:31S 29°53' E 031°00'0 0.0
2015-Dec-23 15:31S 29°53' E 031°00'0 0.0
2015-Dec-23 14:28S 29°53' E 031°00'0 0.0
2015-Dec-23 13:31S 29°53' E 031°00'0 0.0
2015-Dec-23 06:31S 29°53' E 031°00'0 0.0
2015-Dec-23 05:31S 29°53' E 031°00'0 0.0
2015-Dec-23 04:31S 29°53' E 031°00'0 0.0
2015-Dec-23 03:31S 29°53' E 031°00'0 0.0
2015-Dec-23 02:31S 29°53' E 031°00'0 0.0
2015-Dec-23 01:31S 29°53' E 031°00'0 0.0
2015-Dec-23 00:31S 29°53' E 031°00'0 0.0
2015-Dec-22 23:31S 29°53' E 031°00'0 0.0
2015-Dec-22 22:31S 29°53' E 031°00'0 0.0
2015-Dec-22 21:31S 29°53' E 031°00'0 0.0
2015-Dec-22 20:31S 29°53' E 031°00'0 0.0
2015-Dec-22 19:28S 29°53' E 031°00'0 0.0
2015-Dec-22 18:31S 29°53' E 031°00'0 0.0
2015-Dec-22 17:31S 29°53' E 031°00'0 0.0
2015-Dec-22 16:31S 29°53' E 031°00'0 0.0
2015-Dec-22 15:31S 29°53' E 031°00'0 0.0
2015-Dec-22 14:31S 29°53' E 031°00'0 0.0
2015-Dec-22 13:31S 29°53' E 031°00'0 0.0
2015-Dec-22 12:31S 29°53' E 031°00'0 0.0
2015-Dec-22 11:28S 29°53' E 031°00'0 0.0
2015-Dec-22 10:28S 29°53' E 031°00'0 0.0
2015-Dec-22 09:31S 29°53' E 031°00'0 0.0
2015-Dec-22 08:31S 29°53' E 031°00'0 0.0
2015-Dec-22 07:28S 29°53' E 031°00'0 0.0
2015-Dec-22 06:28S 29°53' E 031°00'0 0.0
2015-Dec-22 05:31S 29°53' E 031°00'0 0.0
2015-Dec-22 04:31S 29°53' E 031°00'0 0.0
2015-Dec-22 03:31S 29°53' E 031°00'0 0.0
2015-Dec-22 02:31S 29°53' E 031°00'0 0.0
2015-Dec-22 01:28S 29°53' E 031°00'0 0.0
2015-Dec-22 00:31S 29°53' E 031°00'0 0.0
2015-Dec-21 23:31S 29°53' E 031°00'0 0.0
2015-Dec-21 22:31S 29°53' E 031°00'0 0.0
2015-Dec-21 21:31S 29°53' E 031°00'0 0.0
2015-Dec-21 20:31S 29°53' E 031°00'0 0.0
2015-Dec-21 19:31S 29°53' E 031°00'0 0.0
2015-Dec-21 18:31S 29°53' E 031°00'0 0.0
2015-Dec-21 17:31S 29°53' E 031°00'0 0.0
2015-Dec-21 16:31S 29°53' E 031°00'0 0.0
2015-Dec-21 15:28S 29°53' E 031°00'0 0.0
2015-Dec-21 14:31S 29°53' E 031°00'0 0.0
2015-Dec-21 13:28S 29°53' E 031°00'0 0.0
2015-Dec-21 12:28S 29°53' E 031°00'0 0.0
2015-Dec-21 11:28S 29°53' E 031°00'0 0.0
2015-Dec-21 10:28S 29°53' E 031°00'0 0.0
2015-Dec-21 09:31S 29°53' E 031°00'0 0.0
2015-Dec-21 08:31S 29°53' E 031°00'0 0.0
2015-Dec-21 07:31S 29°53' E 031°00'0 0.0
2015-Dec-21 06:31S 29°53' E 031°00'0 0.0
2015-Dec-21 05:31S 29°53' E 031°00'0 0.0
2015-Dec-21 04:28S 29°53' E 031°00'0 0.0
2015-Dec-21 03:31S 29°53' E 031°00'0 0.0
2015-Dec-21 02:31S 29°53' E 031°00'0 0.0
2015-Dec-21 01:31S 29°53' E 031°00'0 0.0
2015-Dec-21 00:31S 29°53' E 031°00'0 0.0
2015-Dec-20 23:31S 29°53' E 031°00'0 0.0
2015-Dec-20 22:31S 29°53' E 031°00'0 0.0
2015-Dec-20 21:31S 29°53' E 031°00'0 0.0
2015-Dec-20 20:31S 29°53' E 031°00'0 0.0
2015-Dec-20 19:31S 29°53' E 031°00'0 0.0
2015-Dec-20 18:31S 29°53' E 031°00'0 0.0
2015-Dec-20 17:31S 29°53' E 031°00'0 0.0
2015-Dec-20 16:31S 29°53' E 031°00'0 0.0
2015-Dec-20 15:31S 29°53' E 031°00'0 0.0
2015-Dec-20 14:28S 29°53' E 031°00'0 0.0
2015-Dec-20 13:31S 29°53' E 031°00'0 0.0
2015-Dec-20 12:31S 29°53' E 031°00'0 0.0
2015-Dec-20 11:31S 29°53' E 031°00'0 0.0
2015-Dec-20 10:31S 29°53' E 031°00'0 0.0
2015-Dec-20 09:31S 29°53' E 031°00'0 0.0
2015-Dec-20 08:31S 29°53' E 031°00'0 0.0
2015-Dec-20 07:31S 29°53' E 031°00'0 0.0
2015-Dec-20 06:31S 29°53' E 031°00'0 0.0
2015-Dec-20 05:28S 29°53' E 031°00'0 0.0
2015-Dec-20 04:31S 29°53' E 031°00'0 0.0
2015-Dec-20 03:31S 29°53' E 031°00'0 0.0
2015-Dec-20 02:31S 29°53' E 031°00'0 0.0
2015-Dec-20 01:31S 29°53' E 031°00'0 0.0
2015-Dec-20 00:31S 29°53' E 031°00'0 0.0
2015-Dec-19 23:31S 29°53' E 031°00'0 0.0
2015-Dec-19 22:31S 29°53' E 031°00'0 0.0
2015-Dec-19 21:31S 29°53' E 031°00'0 0.0
2015-Dec-19 20:31S 29°53' E 031°00'0 0.0
2015-Dec-19 19:31S 29°53' E 031°00'0 0.0
2015-Dec-19 18:31S 29°53' E 031°00'0 0.0
2015-Dec-19 17:31S 29°53' E 031°00'0 0.0
2015-Dec-19 16:28S 29°53' E 031°00'0 0.0
2015-Dec-19 15:28S 29°53' E 031°00'0 0.0
2015-Dec-19 14:31S 29°53' E 031°00'0 0.0
2015-Dec-19 13:22S 29°53' E 031°00'0 0.0
2015-Dec-19 12:31S 29°53' E 031°00'0 0.0
2015-Dec-19 11:31S 29°53' E 031°00'0 0.0
2015-Dec-19 10:31S 29°53' E 031°00'0 0.0
2015-Dec-19 09:31S 29°53' E 031°00'0 0.0
2015-Dec-19 08:31S 29°53' E 031°00'0 0.0
2015-Dec-19 07:31S 29°53' E 031°00'0 0.0
2015-Dec-19 06:31S 29°53' E 031°00'  

Dump ship's entire track history